sensor_id;sensor_type;location;lat;lon;timestamp;pressure;altitude;pressure_sealevel;temperature;humidity
33697;BME280;20031;43.416;23.232;2022-10-12T00:01:51;100748.19;;;13.65;83.87
33697;BME280;20031;43.416;23.232;2022-10-12T00:04:17;100747.38;;;13.64;83.68
33697;BME280;20031;43.416;23.232;2022-10-12T00:06:42;100743.91;;;13.64;83.56
33697;BME280;20031;43.416;23.232;2022-10-12T00:09:08;100740.66;;;13.62;83.67
33697;BME280;20031;43.416;23.232;2022-10-12T00:11:34;100739.69;;;13.63;83.43
33697;BME280;20031;43.416;23.232;2022-10-12T00:13:59;100744.59;;;13.66;83.76
33697;BME280;20031;43.416;23.232;2022-10-12T00:16:25;100740.66;;;13.62;83.40
33697;BME280;20031;43.416;23.232;2022-10-12T00:18:55;100734.09;;;13.58;83.94
33697;BME280;20031;43.416;23.232;2022-10-12T00:21:22;100738.19;;;13.60;83.76
33697;BME280;20031;43.416;23.232;2022-10-12T00:23:47;100733.78;;;13.61;83.60
33697;BME280;20031;43.416;23.232;2022-10-12T00:26:19;100734.91;;;13.58;83.83
33697;BME280;20031;43.416;23.232;2022-10-12T00:28:45;100727.88;;;13.59;83.49
33697;BME280;20031;43.416;23.232;2022-10-12T00:31:18;100731.00;;;13.62;83.64
33697;BME280;20031;43.416;23.232;2022-10-12T00:33:45;100722.97;;;13.64;83.50
33697;BME280;20031;43.416;23.232;2022-10-12T00:38:38;100723.97;;;13.63;83.52
33697;BME280;20031;43.416;23.232;2022-10-12T00:41:04;100720.53;;;13.62;83.45
33697;BME280;20031;43.416;23.232;2022-10-12T00:43:32;100720.69;;;13.61;83.37
33697;BME280;20031;43.416;23.232;2022-10-12T00:46:00;100720.84;;;13.59;83.55
33697;BME280;20031;43.416;23.232;2022-10-12T00:48:27;100718.38;;;13.58;83.47
33697;BME280;20031;43.416;23.232;2022-10-12T00:50:54;100718.72;;;13.55;83.35
33697;BME280;20031;43.416;23.232;2022-10-12T00:53:23;100714.78;;;13.51;83.40
33697;BME280;20031;43.416;23.232;2022-10-12T00:55:54;100714.47;;;13.46;83.16
33697;BME280;20031;43.416;23.232;2022-10-12T00:58:21;100720.34;;;13.40;83.58
33697;BME280;20031;43.416;23.232;2022-10-12T01:00:46;100722.59;;;13.35;83.23
33697;BME280;20031;43.416;23.232;2022-10-12T01:03:14;100723.25;;;13.29;83.15
33697;BME280;20031;43.416;23.232;2022-10-12T01:05:40;100721.91;;;13.25;83.39
33697;BME280;20031;43.416;23.232;2022-10-12T01:08:06;100717.31;;;13.19;83.37
33697;BME280;20031;43.416;23.232;2022-10-12T01:10:31;100717.97;;;13.13;83.44
33697;BME280;20031;43.416;23.232;2022-10-12T01:12:57;100720.84;;;13.02;83.19
33697;BME280;20031;43.416;23.232;2022-10-12T01:15:32;100720.81;;;12.94;83.33
33697;BME280;20031;43.416;23.232;2022-10-12T01:18:06;100723.56;;;12.85;83.31
33697;BME280;20031;43.416;23.232;2022-10-12T01:20:56;100729.06;;;12.82;83.61
33697;BME280;20031;43.416;23.232;2022-10-12T01:26:07;100726.72;;;12.71;83.61
33697;BME280;20031;43.416;23.232;2022-10-12T01:31:29;100727.34;;;12.65;83.58
33697;BME280;20031;43.416;23.232;2022-10-12T01:34:06;100734.47;;;12.55;83.38
33697;BME280;20031;43.416;23.232;2022-10-12T01:36:51;100732.03;;;12.54;83.85
33697;BME280;20031;43.416;23.232;2022-10-12T01:41:58;100737.56;;;12.51;84.13
33697;BME280;20031;43.416;23.232;2022-10-12T01:44:25;100738.53;;;12.50;84.12
33697;BME280;20031;43.416;23.232;2022-10-12T01:46:52;100740.59;;;12.46;83.97
33697;BME280;20031;43.416;23.232;2022-10-12T01:49:22;100743.53;;;12.43;83.87
33697;BME280;20031;43.416;23.232;2022-10-12T01:52:06;100740.25;;;12.41;84.32
33697;BME280;20031;43.416;23.232;2022-10-12T01:54:53;100734.81;;;12.35;84.04
33697;BME280;20031;43.416;23.232;2022-10-12T02:00:14;100737.31;;;12.19;84.20
33697;BME280;20031;43.416;23.232;2022-10-12T02:05:43;100747.34;;;12.06;84.57
33697;BME280;20031;43.416;23.232;2022-10-12T02:11:14;100759.94;;;11.93;85.07
33697;BME280;20031;43.416;23.232;2022-10-12T02:13:44;100763.22;;;11.95;85.15
33697;BME280;20031;43.416;23.232;2022-10-12T02:16:15;100758.84;;;11.96;85.22
33697;BME280;20031;43.416;23.232;2022-10-12T02:18:44;100757.88;;;11.97;85.60
33697;BME280;20031;43.416;23.232;2022-10-12T02:21:15;100757.56;;;12.00;86.17
33697;BME280;20031;43.416;23.232;2022-10-12T02:23:44;100760.19;;;12.00;85.72
33697;BME280;20031;43.416;23.232;2022-10-12T02:26:12;100759.34;;;11.99;86.11
33697;BME280;20031;43.416;23.232;2022-10-12T02:28:38;100761.97;;;11.99;85.87
33697;BME280;20031;43.416;23.232;2022-10-12T02:31:14;100762.94;;;11.98;85.77
33697;BME280;20031;43.416;23.232;2022-10-12T02:33:47;100757.72;;;11.98;85.64
33697;BME280;20031;43.416;23.232;2022-10-12T02:36:24;100761.97;;;11.99;86.25
33697;BME280;20031;43.416;23.232;2022-10-12T02:39:18;100766.22;;;12.00;85.94
33697;BME280;20031;43.416;23.232;2022-10-12T02:41:49;100748.09;;;11.99;85.66
33697;BME280;20031;43.416;23.232;2022-10-12T02:44:23;100744.81;;;11.97;85.59
33697;BME280;20031;43.416;23.232;2022-10-12T02:46:52;100750.84;;;11.97;85.67
33697;BME280;20031;43.416;23.232;2022-10-12T02:49:21;100749.06;;;11.98;85.59
33697;BME280;20031;43.416;23.232;2022-10-12T02:51:49;100756.06;;;11.97;85.54
33697;BME280;20031;43.416;23.232;2022-10-12T02:54:14;100764.88;;;11.96;85.33
33697;BME280;20031;43.416;23.232;2022-10-12T02:56:44;100764.06;;;11.96;85.06
33697;BME280;20031;43.416;23.232;2022-10-12T02:59:13;100762.41;;;11.95;85.07
33697;BME280;20031;43.416;23.232;2022-10-12T03:01:39;100769.59;;;11.93;84.80
33697;BME280;20031;43.416;23.232;2022-10-12T03:04:05;100771.66;;;11.89;84.67
33697;BME280;20031;43.416;23.232;2022-10-12T03:06:30;100767.69;;;11.85;84.43
33697;BME280;20031;43.416;23.232;2022-10-12T03:08:56;100771.59;;;11.81;84.30
33697;BME280;20031;43.416;23.232;2022-10-12T03:11:22;100762.41;;;11.77;84.53
33697;BME280;20031;43.416;23.232;2022-10-12T03:13:50;100767.94;;;11.74;84.33
33697;BME280;20031;43.416;23.232;2022-10-12T03:16:15;100766.28;;;11.73;84.34
33697;BME280;20031;43.416;23.232;2022-10-12T03:18:41;100768.38;;;11.70;84.14
33697;BME280;20031;43.416;23.232;2022-10-12T03:21:06;100766.06;;;11.67;83.96
33697;BME280;20031;43.416;23.232;2022-10-12T03:23:32;100759.66;;;11.62;83.60
33697;BME280;20031;43.416;23.232;2022-10-12T03:25:58;100767.69;;;11.51;83.23
33697;BME280;20031;43.416;23.232;2022-10-12T03:28:23;100774.28;;;11.45;83.71
33697;BME280;20031;43.416;23.232;2022-10-12T03:30:49;100770.84;;;11.45;83.81
33697;BME280;20031;43.416;23.232;2022-10-12T03:33:14;100774.28;;;11.45;83.76
33697;BME280;20031;43.416;23.232;2022-10-12T03:35:42;100779.63;;;11.44;83.70
33697;BME280;20031;43.416;23.232;2022-10-12T03:38:09;100773.75;;;11.42;84.07
33697;BME280;20031;43.416;23.232;2022-10-12T03:40:35;100775.66;;;11.40;83.86
33697;BME280;20031;43.416;23.232;2022-10-12T03:43:00;100775.00;;;11.38;84.06
33697;BME280;20031;43.416;23.232;2022-10-12T03:45:26;100774.75;;;11.31;83.72
33697;BME280;20031;43.416;23.232;2022-10-12T03:47:51;100788.38;;;11.25;83.81
33697;BME280;20031;43.416;23.232;2022-10-12T03:50:17;100783.22;;;11.16;83.73
33697;BME280;20031;43.416;23.232;2022-10-12T03:52:42;100784.63;;;11.11;84.25
33697;BME280;20031;43.416;23.232;2022-10-12T03:55:08;100778.19;;;11.05;84.05
33697;BME280;20031;43.416;23.232;2022-10-12T03:57:33;100780.41;;;11.00;84.58
33697;BME280;20031;43.416;23.232;2022-10-12T03:59:59;100780.09;;;11.03;84.56
33697;BME280;20031;43.416;23.232;2022-10-12T04:02:24;100778.47;;;11.02;84.63
33697;BME280;20031;43.416;23.232;2022-10-12T04:04:50;100783.56;;;11.04;84.72
33697;BME280;20031;43.416;23.232;2022-10-12T04:07:15;100779.97;;;11.05;84.20
33697;BME280;20031;43.416;23.232;2022-10-12T04:09:41;100776.41;;;11.06;84.64
33697;BME280;20031;43.416;23.232;2022-10-12T04:12:06;100781.03;;;11.12;84.99
33697;BME280;20031;43.416;23.232;2022-10-12T04:14:32;100783.22;;;11.16;84.86
33697;BME280;20031;43.416;23.232;2022-10-12T04:16:57;100783.75;;;11.19;84.95
33697;BME280;20031;43.416;23.232;2022-10-12T04:19:22;100785.53;;;11.19;84.48
33697;BME280;20031;43.416;23.232;2022-10-12T04:21:48;100781.00;;;11.21;84.71
33697;BME280;20031;43.416;23.232;2022-10-12T04:24:13;100786.06;;;11.22;84.53
33697;BME280;20031;43.416;23.232;2022-10-12T04:26:39;100792.94;;;11.23;84.52
33697;BME280;20031;43.416;23.232;2022-10-12T04:29:04;100790.47;;;11.22;84.50
33697;BME280;20031;43.416;23.232;2022-10-12T04:31:30;100794.03;;;11.21;84.46
33697;BME280;20031;43.416;23.232;2022-10-12T04:33:56;100799.91;;;11.23;84.36
33697;BME280;20031;43.416;23.232;2022-10-12T04:36:25;100796.34;;;11.24;84.55
33697;BME280;20031;43.416;23.232;2022-10-12T04:38:51;100798.28;;;11.22;84.09
33697;BME280;20031;43.416;23.232;2022-10-12T04:41:16;100802.81;;;11.20;83.81
33697;BME280;20031;43.416;23.232;2022-10-12T04:43:42;100805.41;;;11.20;84.24
33697;BME280;20031;43.416;23.232;2022-10-12T04:46:07;100803.38;;;11.14;83.84
33697;BME280;20031;43.416;23.232;2022-10-12T04:48:33;100809.19;;;11.08;83.78
33697;BME280;20031;43.416;23.232;2022-10-12T04:50:58;100803.84;;;11.00;83.66
33697;BME280;20031;43.416;23.232;2022-10-12T04:53:24;100801.25;;;11.00;84.05
33697;BME280;20031;43.416;23.232;2022-10-12T04:55:49;100806.31;;;11.02;84.28
33697;BME280;20031;43.416;23.232;2022-10-12T04:58:15;100807.53;;;11.07;84.42
33697;BME280;20031;43.416;23.232;2022-10-12T05:00:40;100811.25;;;11.05;84.11
33697;BME280;20031;43.416;23.232;2022-10-12T05:03:06;100808.41;;;10.98;83.96
33697;BME280;20031;43.416;23.232;2022-10-12T05:05:58;100808.69;;;10.95;84.00
33697;BME280;20031;43.416;23.232;2022-10-12T05:08:24;100810.72;;;11.01;84.45
33697;BME280;20031;43.416;23.232;2022-10-12T05:10:59;100813.28;;;11.11;84.64
33697;BME280;20031;43.416;23.232;2022-10-12T05:26:57;100827.50;;;11.62;84.23
33697;BME280;20031;43.416;23.232;2022-10-12T05:29:22;100827.56;;;11.70;84.00
33697;BME280;20031;43.416;23.232;2022-10-12T05:31:48;100829.56;;;11.75;83.78
33697;BME280;20031;43.416;23.232;2022-10-12T05:34:13;100822.28;;;11.79;83.57
33697;BME280;20031;43.416;23.232;2022-10-12T05:36:39;100840.25;;;11.82;83.32
33697;BME280;20031;43.416;23.232;2022-10-12T05:39:04;100832.38;;;11.91;82.86
33697;BME280;20031;43.416;23.232;2022-10-12T05:41:29;100832.97;;;12.03;82.27
33697;BME280;20031;43.416;23.232;2022-10-12T05:43:55;100829.47;;;12.12;82.46
33697;BME280;20031;43.416;23.232;2022-10-12T05:46:20;100830.06;;;12.23;82.04
33697;BME280;20031;43.416;23.232;2022-10-12T05:48:46;100833.81;;;12.38;82.55
33697;BME280;20031;43.416;23.232;2022-10-12T05:51:11;100838.69;;;12.58;82.37
33697;BME280;20031;43.416;23.232;2022-10-12T06:34:18;100862.84;;;15.05;77.92
33697;BME280;20031;43.416;23.232;2022-10-12T06:36:43;100855.94;;;15.28;77.20
33697;BME280;20031;43.416;23.232;2022-10-12T06:39:09;100860.13;;;15.53;76.65
33697;BME280;20031;43.416;23.232;2022-10-12T06:41:35;100861.63;;;15.78;76.15
33697;BME280;20031;43.416;23.232;2022-10-12T06:44:00;100861.97;;;15.75;74.48
33697;BME280;20031;43.416;23.232;2022-10-12T06:46:26;100862.38;;;15.64;74.28
33697;BME280;20031;43.416;23.232;2022-10-12T06:48:51;100862.75;;;15.53;74.37
33697;BME280;20031;43.416;23.232;2022-10-12T06:51:16;100863.22;;;15.56;75.35
33697;BME280;20031;43.416;23.232;2022-10-12T06:53:42;100863.03;;;15.66;75.13
33697;BME280;20031;43.416;23.232;2022-10-12T06:56:09;100866.53;;;15.81;75.07
33697;BME280;20031;43.416;23.232;2022-10-12T06:58:34;100866.69;;;15.87;74.87
33697;BME280;20031;43.416;23.232;2022-10-12T07:01:02;100862.50;;;16.00;75.00
33697;BME280;20031;43.416;23.232;2022-10-12T07:03:28;100870.09;;;15.95;74.36
33697;BME280;20031;43.416;23.232;2022-10-12T07:05:53;100871.13;;;15.86;74.60
33697;BME280;20031;43.416;23.232;2022-10-12T07:08:19;100868.50;;;15.86;74.70
33697;BME280;20031;43.416;23.232;2022-10-12T07:10:44;100866.22;;;15.83;74.64
33697;BME280;20031;43.416;23.232;2022-10-12T07:13:09;100874.75;;;15.85;75.01
33697;BME280;20031;43.416;23.232;2022-10-12T07:15:35;100870.28;;;15.86;74.87
33697;BME280;20031;43.416;23.232;2022-10-12T07:18:00;100867.81;;;15.92;75.42
33697;BME280;20031;43.416;23.232;2022-10-12T07:20:26;100864.94;;;16.02;75.21
33697;BME280;20031;43.416;23.232;2022-10-12T07:22:52;100866.66;;;16.25;75.76
33697;BME280;20031;43.416;23.232;2022-10-12T07:25:17;100850.31;;;16.74;75.72
33697;BME280;20031;43.416;23.232;2022-10-12T07:27:47;100849.66;;;17.38;74.89
33697;BME280;20031;43.416;23.232;2022-10-12T07:30:12;100851.75;;;17.71;72.26
33697;BME280;20031;43.416;23.232;2022-10-12T07:32:38;100855.47;;;17.76;70.20
33697;BME280;20031;43.416;23.232;2022-10-12T07:35:03;100854.03;;;17.94;69.68
33697;BME280;20031;43.416;23.232;2022-10-12T07:37:29;100855.09;;;18.00;68.81
33697;BME280;20031;43.416;23.232;2022-10-12T07:39:54;100862.41;;;17.98;67.84
33697;BME280;20031;43.416;23.232;2022-10-12T07:42:22;100858.69;;;18.28;67.86
33697;BME280;20031;43.416;23.232;2022-10-12T07:44:48;100854.13;;;18.57;66.54
33697;BME280;20031;43.416;23.232;2022-10-12T07:47:13;100863.44;;;18.80;66.49
33697;BME280;20031;43.416;23.232;2022-10-12T07:49:41;100866.28;;;18.79;65.33
33697;BME280;20031;43.416;23.232;2022-10-12T07:52:07;100864.13;;;18.89;66.44
33697;BME280;20031;43.416;23.232;2022-10-12T07:54:32;100871.63;;;19.12;66.41
33697;BME280;20031;43.416;23.232;2022-10-12T07:56:58;100869.38;;;19.43;64.57
33697;BME280;20031;43.416;23.232;2022-10-12T07:59:23;100873.13;;;19.55;63.24
33697;BME280;20031;43.416;23.232;2022-10-12T08:01:49;100865.66;;;19.71;61.09
33697;BME280;20031;43.416;23.232;2022-10-12T08:04:14;100872.38;;;19.74;59.44
33697;BME280;20031;43.416;23.232;2022-10-12T08:06:41;100866.22;;;20.00;59.50
33697;BME280;20031;43.416;23.232;2022-10-12T08:09:08;100864.84;;;20.24;58.04
33697;BME280;20031;43.416;23.232;2022-10-12T08:11:37;100868.53;;;20.42;57.88
33697;BME280;20031;43.416;23.232;2022-10-12T08:14:03;100861.06;;;20.84;56.30
33697;BME280;20031;43.416;23.232;2022-10-12T08:16:28;100863.28;;;21.06;54.92
33697;BME280;20031;43.416;23.232;2022-10-12T08:18:54;100856.50;;;21.30;54.20
33697;BME280;20031;43.416;23.232;2022-10-12T08:21:19;100857.91;;;21.45;52.99
33697;BME280;20031;43.416;23.232;2022-10-12T08:23:45;100859.75;;;21.51;52.16
33697;BME280;20031;43.416;23.232;2022-10-12T08:26:11;100857.13;;;21.25;51.09
33697;BME280;20031;43.416;23.232;2022-10-12T08:28:37;100864.31;;;21.12;52.17
33697;BME280;20031;43.416;23.232;2022-10-12T08:31:12;100860.41;;;21.14;51.69
33697;BME280;20031;43.416;23.232;2022-10-12T08:33:38;100866.53;;;21.08;52.10
33697;BME280;20031;43.416;23.232;2022-10-12T08:36:05;100860.84;;;21.05;52.53
33697;BME280;20031;43.416;23.232;2022-10-12T08:38:32;100866.31;;;21.23;52.36
33697;BME280;20031;43.416;23.232;2022-10-12T08:41:10;100850.56;;;21.34;52.58
33697;BME280;20031;43.416;23.232;2022-10-12T08:46:30;100859.38;;;21.28;52.25
33697;BME280;20031;43.416;23.232;2022-10-12T08:49:13;100862.44;;;21.25;52.20
33697;BME280;20031;43.416;23.232;2022-10-12T08:51:56;100861.81;;;21.30;52.00
33697;BME280;20031;43.416;23.232;2022-10-12T08:54:24;100856.94;;;21.07;52.30
33697;BME280;20031;43.416;23.232;2022-10-12T08:56:53;100864.72;;;20.90;52.09
33697;BME280;20031;43.416;23.232;2022-10-12T08:59:19;100866.16;;;20.73;52.91
33697;BME280;20031;43.416;23.232;2022-10-12T09:15:21;100869.28;;;20.17;53.92
33697;BME280;20031;43.416;23.232;2022-10-12T09:17:55;100865.19;;;20.01;54.01
33697;BME280;20031;43.416;23.232;2022-10-12T09:20:30;100858.72;;;20.10;54.66
33697;BME280;20031;43.416;23.232;2022-10-12T09:23:22;100863.59;;;20.13;54.16
33697;BME280;20031;43.416;23.232;2022-10-12T09:25:48;100862.38;;;20.22;54.69
33697;BME280;20031;43.416;23.232;2022-10-12T09:28:24;100860.56;;;20.16;53.86
33697;BME280;20031;43.416;23.232;2022-10-12T09:31:09;100859.53;;;20.17;53.64
33697;BME280;20031;43.416;23.232;2022-10-12T09:33:42;100856.09;;;20.23;53.54
33697;BME280;20031;43.416;23.232;2022-10-12T09:36:11;100859.56;;;20.30;53.27
33697;BME280;20031;43.416;23.232;2022-10-12T09:38:39;100863.84;;;20.38;53.16
33697;BME280;20031;43.416;23.232;2022-10-12T09:41:04;100859.97;;;20.34;53.03
33697;BME280;20031;43.416;23.232;2022-10-12T09:43:30;100858.75;;;20.30;53.48
33697;BME280;20031;43.416;23.232;2022-10-12T09:46:09;100857.53;;;20.32;53.11
33697;BME280;20031;43.416;23.232;2022-10-12T09:48:55;100855.50;;;20.34;52.34
33697;BME280;20031;43.416;23.232;2022-10-12T09:51:21;100854.69;;;20.27;52.52
33697;BME280;20031;43.416;23.232;2022-10-12T09:53:48;100858.34;;;20.33;52.86
33697;BME280;20031;43.416;23.232;2022-10-12T09:56:27;100847.38;;;20.48;53.14
33697;BME280;20031;43.416;23.232;2022-10-12T09:58:59;100850.00;;;20.68;52.94
33697;BME280;20031;43.416;23.232;2022-10-12T10:01:28;100847.00;;;20.84;52.50
33697;BME280;20031;43.416;23.232;2022-10-12T10:04:07;100846.78;;;20.92;52.12
33697;BME280;20031;43.416;23.232;2022-10-12T10:06:35;100837.81;;;21.05;51.81
33697;BME280;20031;43.416;23.232;2022-10-12T10:09:00;100831.81;;;21.36;51.68
33697;BME280;20031;43.416;23.232;2022-10-12T10:11:29;100834.22;;;21.63;50.41
33697;BME280;20031;43.416;23.232;2022-10-12T10:14:32;100831.94;;;21.73;50.24
33697;BME280;20031;43.416;23.232;2022-10-12T10:18:01;100825.09;;;21.90;50.07
33697;BME280;20031;43.416;23.232;2022-10-12T10:24:36;100826.13;;;22.26;49.10
33697;BME280;20031;43.416;23.232;2022-10-12T10:27:31;100821.19;;;22.29;48.75
33697;BME280;20031;43.416;23.232;2022-10-12T10:32:41;100813.16;;;22.42;48.50
33697;BME280;20031;43.416;23.232;2022-10-12T10:40:18;100805.69;;;22.26;48.02
33697;BME280;20031;43.416;23.232;2022-10-12T10:42:49;100795.13;;;22.20;47.96
33697;BME280;20031;43.416;23.232;2022-10-12T10:45:29;100805.41;;;22.03;48.04
33697;BME280;20031;43.416;23.232;2022-10-12T10:47:56;100806.13;;;21.93;48.52
33697;BME280;20031;43.416;23.232;2022-10-12T10:50:35;100793.44;;;21.95;48.24
33697;BME280;20031;43.416;23.232;2022-10-12T10:53:04;100795.84;;;22.03;48.79
33697;BME280;20031;43.416;23.232;2022-10-12T10:55:44;100793.94;;;22.09;48.56
33697;BME280;20031;43.416;23.232;2022-10-12T11:00:46;100789.66;;;21.78;48.81
33697;BME280;20031;43.416;23.232;2022-10-12T11:03:22;100782.25;;;21.86;49.27
33697;BME280;20031;43.416;23.232;2022-10-12T11:05:56;100785.63;;;22.00;49.38
33697;BME280;20031;43.416;23.232;2022-10-12T11:08:27;100777.66;;;22.06;48.85
33697;BME280;20031;43.416;23.232;2022-10-12T11:11:06;100777.56;;;22.25;48.79
33697;BME280;20031;43.416;23.232;2022-10-12T11:13:38;100777.06;;;22.35;47.96
33697;BME280;20031;43.416;23.232;2022-10-12T11:18:44;100769.75;;;22.30;48.01
33697;BME280;20031;43.416;23.232;2022-10-12T11:21:31;100766.94;;;22.25;48.14
33697;BME280;20031;43.416;23.232;2022-10-12T11:24:20;100768.09;;;22.29;48.48
33697;BME280;20031;43.416;23.232;2022-10-12T11:29:15;100767.91;;;22.55;48.13
33697;BME280;20031;43.416;23.232;2022-10-12T11:31:52;100761.88;;;22.42;48.02
33697;BME280;20031;43.416;23.232;2022-10-12T11:34:22;100766.31;;;22.48;48.34
33697;BME280;20031;43.416;23.232;2022-10-12T11:36:50;100768.22;;;22.41;48.40
33697;BME280;20031;43.416;23.232;2022-10-12T11:39:52;100764.72;;;22.47;48.51
33697;BME280;20031;43.416;23.232;2022-10-12T11:42:28;100755.34;;;22.44;48.33
33697;BME280;20031;43.416;23.232;2022-10-12T11:44:55;100750.19;;;22.25;48.15
33697;BME280;20031;43.416;23.232;2022-10-12T11:47:37;100754.25;;;22.27;48.31
33697;BME280;20031;43.416;23.232;2022-10-12T11:50:06;100749.03;;;22.39;48.96
33697;BME280;20031;43.416;23.232;2022-10-12T11:52:45;100751.69;;;22.39;48.49
33697;BME280;20031;43.416;23.232;2022-10-12T11:58:18;100748.25;;;22.07;48.95
33697;BME280;20031;43.416;23.232;2022-10-12T12:01:04;100746.34;;;22.14;49.42
33697;BME280;20031;43.416;23.232;2022-10-12T12:50:58;100747.22;;;22.08;49.26
33697;BME280;20031;43.416;23.232;2022-10-12T12:53:27;100745.81;;;22.06;50.00
33697;BME280;20031;43.416;23.232;2022-10-12T12:56:02;100738.06;;;22.04;49.79
33697;BME280;20031;43.416;23.232;2022-10-12T12:58:50;100742.22;;;21.94;49.94
33697;BME280;20031;43.416;23.232;2022-10-12T13:12:13;100738.75;;;22.24;49.82
33697;BME280;20031;43.416;23.232;2022-10-12T13:20:27;100741.56;;;22.29;50.56
33697;BME280;20031;43.416;23.232;2022-10-12T13:22:54;100740.19;;;22.27;50.16
33697;BME280;20031;43.416;23.232;2022-10-12T13:25:45;100739.41;;;22.13;50.20
33697;BME280;20031;43.416;23.232;2022-10-12T13:28:15;100736.22;;;22.05;50.15
33697;BME280;20031;43.416;23.232;2022-10-12T13:30:59;100736.50;;;21.97;50.12
33697;BME280;20031;43.416;23.232;2022-10-12T13:36:29;100731.97;;;21.98;50.45
33697;BME280;20031;43.416;23.232;2022-10-12T13:38:57;100742.66;;;21.91;50.15
33697;BME280;20031;43.416;23.232;2022-10-12T13:41:25;100739.78;;;21.93;50.84
33697;BME280;20031;43.416;23.232;2022-10-12T13:44:00;100739.25;;;21.78;50.26
33697;BME280;20031;43.416;23.232;2022-10-12T13:46:49;100749.31;;;21.69;51.32
33697;BME280;20031;43.416;23.232;2022-10-12T13:49:31;100753.16;;;21.73;51.37
33697;BME280;20031;43.416;23.232;2022-10-12T13:57:15;100742.84;;;21.59;52.09
33697;BME280;20031;43.416;23.232;2022-10-12T13:59:41;100739.19;;;21.53;51.94
33697;BME280;20031;43.416;23.232;2022-10-12T14:02:28;100735.72;;;21.47;52.22
33697;BME280;20031;43.416;23.232;2022-10-12T14:04:56;100733.13;;;21.40;52.37
33697;BME280;20031;43.416;23.232;2022-10-12T14:07:31;100734.38;;;21.31;52.51
33697;BME280;20031;43.416;23.232;2022-10-12T14:09:58;100728.28;;;21.24;52.51
33697;BME280;20031;43.416;23.232;2022-10-12T14:12:27;100732.63;;;21.12;53.09
33697;BME280;20031;43.416;23.232;2022-10-12T14:14:55;100730.41;;;21.03;53.53
33697;BME280;20031;43.416;23.232;2022-10-12T14:17:21;100723.94;;;20.93;53.83
33697;BME280;20031;43.416;23.232;2022-10-12T14:19:51;100727.00;;;20.83;54.03
33697;BME280;20031;43.416;23.232;2022-10-12T14:22:25;100727.03;;;20.77;54.18
33697;BME280;20031;43.416;23.232;2022-10-12T14:25:14;100733.53;;;20.74;54.33
33697;BME280;20031;43.416;23.232;2022-10-12T14:27:42;100739.06;;;20.73;54.11
33697;BME280;20031;43.416;23.232;2022-10-12T14:30:18;100735.41;;;20.74;54.94
33697;BME280;20031;43.416;23.232;2022-10-12T14:32:49;100734.56;;;20.67;55.37
33697;BME280;20031;43.416;23.232;2022-10-12T14:37:45;100737.03;;;20.55;55.33
33697;BME280;20031;43.416;23.232;2022-10-12T14:45:40;100732.94;;;20.40;55.98
33697;BME280;20031;43.416;23.232;2022-10-12T14:48:14;100733.78;;;20.34;56.26
33697;BME280;20031;43.416;23.232;2022-10-12T14:50:42;100728.06;;;20.31;56.26
33697;BME280;20031;43.416;23.232;2022-10-12T14:53:10;100732.53;;;20.24;56.55
33697;BME280;20031;43.416;23.232;2022-10-12T14:55:36;100731.94;;;20.15;57.68
33697;BME280;20031;43.416;23.232;2022-10-12T14:58:03;100737.03;;;20.10;57.89
33697;BME280;20031;43.416;23.232;2022-10-12T15:00:34;100729.50;;;20.07;57.40
33697;BME280;20031;43.416;23.232;2022-10-12T15:03:00;100727.25;;;20.04;57.29
33697;BME280;20031;43.416;23.232;2022-10-12T15:05:27;100735.59;;;20.01;58.04
33697;BME280;20031;43.416;23.232;2022-10-12T15:07:56;100735.38;;;19.97;57.91
33697;BME280;20031;43.416;23.232;2022-10-12T15:10:22;100733.53;;;19.91;58.07
33697;BME280;20031;43.416;23.232;2022-10-12T15:12:49;100736.13;;;19.84;58.32
33697;BME280;20031;43.416;23.232;2022-10-12T15:15:39;100737.56;;;19.74;58.59
33697;BME280;20031;43.416;23.232;2022-10-12T15:18:07;100739.75;;;19.64;59.05
33697;BME280;20031;43.416;23.232;2022-10-12T15:20:33;100741.97;;;19.54;59.53
33697;BME280;20031;43.416;23.232;2022-10-12T15:22:59;100739.88;;;19.43;59.40
33697;BME280;20031;43.416;23.232;2022-10-12T15:25:26;100751.84;;;19.33;60.16
33697;BME280;20031;43.416;23.232;2022-10-12T15:27:52;100748.97;;;19.21;60.77
33697;BME280;20031;43.416;23.232;2022-10-12T15:30:18;100759.06;;;19.11;61.22
33697;BME280;20031;43.416;23.232;2022-10-12T15:32:43;100752.69;;;18.99;62.06
33697;BME280;20031;43.416;23.232;2022-10-12T15:35:38;100757.50;;;18.90;62.55
33697;BME280;20031;43.416;23.232;2022-10-12T15:38:04;100750.31;;;18.77;62.83
33697;BME280;20031;43.416;23.232;2022-10-12T15:40:31;100755.50;;;18.64;63.73
33697;BME280;20031;43.416;23.232;2022-10-12T15:42:57;100752.41;;;18.54;64.04
33697;BME280;20031;43.416;23.232;2022-10-12T15:45:33;100752.91;;;18.43;64.66
33697;BME280;20031;43.416;23.232;2022-10-12T15:47:59;100747.53;;;18.31;65.55
33697;BME280;20031;43.416;23.232;2022-10-12T15:50:27;100749.06;;;18.19;65.69
33697;BME280;20031;43.416;23.232;2022-10-12T15:52:54;100759.91;;;18.09;66.03
33697;BME280;20031;43.416;23.232;2022-10-12T15:55:20;100762.03;;;17.99;66.37
33697;BME280;20031;43.416;23.232;2022-10-12T15:57:46;100758.91;;;17.89;66.91
33697;BME280;20031;43.416;23.232;2022-10-12T16:00:14;100752.13;;;17.81;67.31
33697;BME280;20031;43.416;23.232;2022-10-12T16:02:40;100759.31;;;17.72;67.83
33697;BME280;20031;43.416;23.232;2022-10-12T16:07:40;100766.63;;;17.56;68.32
33697;BME280;20031;43.416;23.232;2022-10-12T16:10:06;100766.75;;;17.48;69.16